createdAt,value
2023-01-03T00:00:14.571Z,99196.19
2023-01-03T00:03:17.533Z,99202.38
2023-01-03T00:06:21.357Z,99199.72
2023-01-03T00:09:23.889Z,99201.47
2023-01-03T00:12:30.476Z,99197.97
2023-01-03T00:15:34.106Z,99198.03
2023-01-03T00:18:35.753Z,99186.56
2023-01-03T00:21:38.715Z,99192.78
2023-01-03T00:24:40.419Z,99198.09
2023-01-03T00:27:42.795Z,99202.50
2023-01-03T00:30:44.481Z,99214.06
2023-01-03T00:33:46.321Z,99217.63
2023-01-03T00:36:49.638Z,99220.28
2023-01-03T00:39:51.209Z,99223.00
2023-01-03T00:43:11.544Z,99217.69
2023-01-03T00:46:13.971Z,99232.69
2023-01-03T00:49:16.950Z,99232.69
2023-01-03T00:52:19.829Z,99234.41
2023-01-03T00:55:21.390Z,99236.13
2023-01-03T00:58:23.428Z,99243.19
2023-01-03T01:01:26.379Z,99252.84
2023-01-03T01:04:29.119Z,99245.81
2023-01-03T01:07:32.339Z,99255.63
2023-01-03T01:10:33.989Z,99256.47
2023-01-03T01:13:35.797Z,99254.69
2023-01-03T01:16:37.387Z,99257.28
2023-01-03T01:19:40.801Z,99259.00
2023-01-03T01:22:44.069Z,99271.38
2023-01-03T01:25:45.630Z,99269.63
2023-01-03T01:28:47.520Z,99272.28
2023-01-03T01:31:49.563Z,99258.19
2023-01-03T01:34:51.193Z,99282.13
2023-01-03T01:37:54.048Z,99278.66
2023-01-03T01:40:55.555Z,99286.66
2023-01-03T01:44:16.409Z,99288.47
2023-01-03T01:47:21.381Z,99286.72
2023-01-03T01:50:24.849Z,99284.13
2023-01-03T01:53:29.635Z,99292.09
2023-01-03T01:56:33.478Z,99294.69
2023-01-03T01:59:35.454Z,99292.06
2023-01-03T02:02:37.323Z,99299.06
2023-01-03T02:05:41.612Z,99297.31
2023-01-03T02:08:44.636Z,99311.41
2023-01-03T02:11:51.262Z,99314.97
2023-01-03T02:14:59.278Z,99318.53
2023-01-03T02:18:08.285Z,99322.94
2023-01-03T02:21:22.065Z,99321.22
2023-01-03T02:24:34.246Z,99322.97
2023-01-03T02:27:50.570Z,99330.03
2023-01-03T02:30:57.275Z,99331.78
2023-01-03T02:34:02.948Z,99330.91
2023-01-03T02:37:11.479Z,99337.06
2023-01-03T02:40:17.382Z,99330.91
2023-01-03T02:43:22.128Z,99326.53
2023-01-03T02:46:27.155Z,99326.53
2023-01-03T02:49:31.673Z,99321.25
2023-01-03T02:52:33.962Z,99313.31
2023-01-03T02:55:37.937Z,99318.66
2023-01-03T02:58:40.459Z,99314.28
2023-01-03T03:01:45.292Z,99313.47
2023-01-03T03:04:49.209Z,99321.41
2023-01-03T03:07:50.806Z,99315.25
2023-01-03T03:11:11.751Z,99310.94
2023-01-03T03:14:17.887Z,99312.72
2023-01-03T03:17:24.187Z,99316.28
2023-01-03T03:20:44.438Z,99325.13
2023-01-03T03:24:06.241Z,99327.81
2023-01-03T03:27:30.165Z,99328.63
2023-01-03T03:30:33.422Z,99326.00
2023-01-03T03:33:39.580Z,99322.44
2023-01-03T03:36:45.483Z,99329.47
2023-01-03T03:40:06.335Z,99326.00
2023-01-03T03:43:30.054Z,99319.81
2023-01-03T03:46:33.932Z,99330.38
2023-01-03T03:49:38.252Z,99333.03
2023-01-03T03:52:43.066Z,99332.13
2023-01-03T03:55:47.737Z,99328.66
2023-01-03T03:58:51.468Z,99328.66
2023-01-03T04:01:54.418Z,99329.59
2023-01-03T04:04:59.184Z,99331.38
2023-01-03T04:08:00.779Z,99332.31
2023-01-03T04:11:08.368Z,99339.44
2023-01-03T04:14:10.286Z,99341.28
2023-01-03T04:17:12.272Z,99347.44
2023-01-03T04:20:15.276Z,99352.69
2023-01-03T04:23:16.780Z,99352.72
2023-01-03T04:26:18.558Z,99360.78
2023-01-03T04:29:20.054Z,99358.25
2023-01-03T04:32:21.597Z,99363.47
2023-01-03T04:35:24.500Z,99363.41
2023-01-03T04:38:26.097Z,99364.34
2023-01-03T04:41:27.732Z,99359.00
2023-01-03T04:44:29.317Z,99358.13
2023-01-03T04:47:30.807Z,99364.34
2023-01-03T04:50:33.909Z,99373.16
2023-01-03T04:53:35.458Z,99366.19
2023-01-03T04:56:38.202Z,99376.91
2023-01-03T04:59:39.747Z,99371.69
2023-01-03T05:02:41.339Z,99371.69
2023-01-03T05:05:44.746Z,99369.00
2023-01-03T05:08:47.249Z,99372.47
2023-01-03T05:11:48.969Z,99379.53
2023-01-03T05:14:50.560Z,99370.69
2023-01-03T05:17:52.124Z,99373.38
2023-01-03T05:21:14.593Z,99374.28
2023-01-03T05:24:34.742Z,99376.09
2023-01-03T05:27:36.237Z,99380.53
2023-01-03T05:30:37.834Z,99380.56
2023-01-03T05:33:40.020Z,99369.13
2023-01-03T05:36:43.097Z,99383.25
2023-01-03T05:39:44.601Z,99382.34
2023-01-03T05:42:46.138Z,99380.56
2023-01-03T05:45:49.003Z,99384.09
2023-01-03T05:48:50.629Z,99384.09
2023-01-03T05:51:53.635Z,99390.28
2023-01-03T05:54:55.215Z,99399.13
2023-01-03T05:57:56.746Z,99401.72
2023-01-03T06:00:58.300Z,99403.47
2023-01-03T06:03:59.965Z,99421.97
2023-01-03T06:07:02.913Z,99414.94
2023-01-03T06:10:05.392Z,99428.16
2023-01-03T06:13:07.341Z,99425.53
2023-01-03T06:16:28.694Z,99431.66
2023-01-03T06:19:30.981Z,99444.03
2023-01-03T06:22:34.170Z,99430.81
2023-01-03T06:25:35.816Z,99432.53
2023-01-03T06:28:39.319Z,99438.75
2023-01-03T06:31:41.706Z,99445.81
2023-01-03T06:34:43.421Z,99444.09
2023-01-03T06:37:46.390Z,99451.13
2023-01-03T06:40:48.196Z,99454.69
2023-01-03T06:43:49.741Z,99456.41
2023-01-03T06:47:10.364Z,99456.44
2023-01-03T06:50:30.676Z,99456.47
2023-01-03T06:53:35.917Z,99459.16
2023-01-03T06:56:37.486Z,99463.59
2023-01-03T06:59:39.199Z,99462.72
2023-01-03T07:02:41.008Z,99457.47
2023-01-03T07:05:42.661Z,99457.47
2023-01-03T07:08:48.366Z,99454.00
2023-01-03T07:11:50.806Z,99452.28
2023-01-03T07:14:52.363Z,99447.94
2023-01-03T07:17:54.792Z,99450.63
2023-01-03T07:20:56.276Z,99454.19
2023-01-03T07:24:01.870Z,99456.91
2023-01-03T07:27:03.744Z,99459.59
2023-01-03T07:30:06.150Z,99467.56
2023-01-03T07:33:09.218Z,99471.16
2023-01-03T07:36:12.380Z,99472.94
2023-01-03T07:39:15.415Z,99481.75
2023-01-03T07:42:35.570Z,99486.16
2023-01-03T07:45:39.267Z,99498.50
2023-01-03T07:48:41.410Z,99496.72
2023-01-03T07:51:42.989Z,99503.78
2023-01-03T07:54:45.859Z,99493.25
2023-01-03T07:57:51.873Z,99501.19
2023-01-03T08:00:53.417Z,99500.31
2023-01-03T08:03:55.068Z,99506.53
2023-01-03T08:06:58.224Z,99516.19
2023-01-03T08:10:19.802Z,99513.56
2023-01-03T08:13:21.575Z,99506.53
2023-01-03T08:16:23.325Z,99514.41
2023-01-03T08:19:25.036Z,99512.63
2023-01-03T08:22:27.539Z,99519.63
2023-01-03T08:25:30.824Z,99517.88
2023-01-03T08:28:32.949Z,99516.19
2023-01-03T08:31:37.669Z,99515.38
2023-01-03T08:34:42.404Z,99519.84
2023-01-03T08:37:44.701Z,99523.38
2023-01-03T08:40:47.843Z,99531.25
2023-01-03T08:43:49.603Z,99522.44
2023-01-03T08:46:53.338Z,99518.81
2023-01-03T08:49:55.368Z,99521.34
2023-01-03T08:52:58.510Z,99517.72
2023-01-03T08:56:01.523Z,99528.19
2023-01-03T08:59:03.417Z,99529.88
2023-01-03T09:02:05.122Z,99523.63
2023-01-03T09:05:07.769Z,99529.69
2023-01-03T09:08:09.289Z,99533.16
2023-01-03T09:11:12.433Z,99540.13
2023-01-03T09:14:14.421Z,99538.22
2023-01-03T09:17:16.379Z,99546.16
2023-01-03T09:20:18.924Z,99545.28
2023-01-03T09:23:20.550Z,99545.19
2023-01-03T09:26:23.422Z,99549.53
2023-01-03T09:29:25.086Z,99552.00
2023-01-03T09:32:26.705Z,99549.28
2023-01-03T09:35:28.664Z,99543.94
2023-01-03T09:49:07.574Z,99559.78
2023-01-03T09:52:33.658Z,99558.94
2023-01-03T09:59:18.324Z,99550.75
2023-01-03T10:05:41.388Z,99539.94
2023-01-03T10:08:50.580Z,99544.28
2023-01-03T10:11:58.799Z,99532.59
2023-01-03T10:15:07.156Z,99533.44
2023-01-03T10:18:16.869Z,99529.75
2023-01-03T10:21:22.795Z,99535.94
2023-01-03T10:24:25.293Z,99534.19
2023-01-03T10:27:27.896Z,99537.69
2023-01-03T10:30:35.084Z,99530.41
2023-01-03T10:33:38.775Z,99527.63
2023-01-03T10:36:41.655Z,99523.13
2023-01-03T10:39:43.190Z,99524.69
2023-01-03T10:42:45.544Z,99522.13
2023-01-03T10:45:51.790Z,99522.91
2023-01-03T10:49:26.825Z,99517.38
2023-01-03T10:52:18.521Z,99505.78
2023-01-03T10:55:21.788Z,99510.13
2023-01-03T10:58:27.986Z,99499.47
2023-01-03T11:01:32.486Z,99494.94
2023-01-03T11:04:34.832Z,99498.56
2023-01-03T11:07:42.556Z,99499.16
2023-01-03T11:11:05.040Z,99492.94
2023-01-03T11:14:18.849Z,99489.31
2023-01-03T11:17:21.429Z,99488.47
2023-01-03T11:20:35.777Z,99484.66
2023-01-03T11:23:48.438Z,99475.34
2023-01-03T11:26:51.280Z,99470.94
2023-01-03T11:29:59.353Z,99470.88
2023-01-03T11:33:07.619Z,99472.50
2023-01-03T11:36:20.958Z,99469.69
2023-01-03T11:39:36.355Z,99474.25
2023-01-03T11:42:47.000Z,99467.06
2023-01-03T11:46:02.465Z,99472.19
2023-01-03T11:49:09.831Z,99465.94
2023-01-03T11:52:19.673Z,99468.50
2023-01-03T11:55:40.041Z,99463.28
2023-01-03T11:59:02.259Z,99462.06
2023-01-03T12:02:22.692Z,99452.91
2023-01-03T12:05:45.520Z,99447.91
2023-01-03T12:08:52.662Z,99457.88
2023-01-03T12:12:04.514Z,99450.88
2023-01-03T12:15:13.553Z,99450.97
2023-01-03T12:18:18.742Z,99455.44
2023-01-03T12:21:21.872Z,99446.63
2023-01-03T12:24:28.005Z,99447.56
2023-01-03T12:27:33.056Z,99445.84
2023-01-03T12:30:39.808Z,99443.19
2023-01-03T12:33:43.075Z,99443.16
2023-01-03T12:36:48.750Z,99436.00
2023-01-03T12:39:55.246Z,99435.09
2023-01-03T12:42:59.981Z,99434.16
2023-01-03T12:46:12.673Z,99431.47
2023-01-03T12:49:17.350Z,99433.31
2023-01-03T12:52:21.028Z,99429.94
2023-01-03T12:55:24.928Z,99438.88
2023-01-03T12:58:39.733Z,99438.81
2023-01-03T13:01:45.202Z,99437.78
2023-01-03T13:04:48.946Z,99438.63
2023-01-03T13:07:53.547Z,99431.59
2023-01-03T13:10:57.947Z,99412.09
2023-01-03T13:14:03.656Z,99419.06
2023-01-03T13:17:12.342Z,99415.47
2023-01-03T13:20:33.304Z,99404.97
2023-01-03T13:23:36.311Z,99401.47
2023-01-03T13:26:37.870Z,99405.91
2023-01-03T13:29:44.672Z,99401.59
2023-01-03T13:32:48.034Z,99411.28
2023-01-03T13:35:57.858Z,99401.47
2023-01-03T13:39:00.292Z,99396.09
2023-01-03T13:42:01.895Z,99389.84
2023-01-03T13:45:22.389Z,99400.44
2023-01-03T13:48:41.997Z,99400.41
2023-01-03T13:51:49.155Z,99395.06
2023-01-03T13:54:59.783Z,99408.31
2023-01-03T13:58:01.816Z,99410.06
2023-01-03T14:01:06.465Z,99405.63
2023-01-03T14:04:22.990Z,99410.91
2023-01-03T14:07:48.063Z,99408.28
2023-01-03T14:11:01.177Z,99410.09
2023-01-03T14:14:05.785Z,99410.97
2023-01-03T14:17:14.805Z,99414.50
2023-01-03T14:20:19.315Z,99410.97
2023-01-03T14:23:58.450Z,99408.25
2023-01-03T14:26:45.918Z,99415.31
2023-01-03T14:29:49.737Z,99409.13
2023-01-03T14:32:51.509Z,99414.44
2023-01-03T14:36:01.019Z,99413.59
2023-01-03T14:39:05.260Z,99416.25
2023-01-03T14:42:07.675Z,99422.44
2023-01-03T14:45:16.647Z,99429.50
2023-01-03T14:48:18.465Z,99423.31
2023-01-03T14:51:20.128Z,99425.94
2023-01-03T14:54:29.841Z,99430.34
2023-01-03T14:57:32.081Z,99434.72
2023-01-03T15:00:35.683Z,99442.69
2023-01-03T15:03:39.577Z,99437.41
2023-01-03T15:07:01.384Z,99440.03
2023-01-03T15:10:18.138Z,99444.50
2023-01-03T15:13:22.873Z,99436.56
2023-01-03T15:16:26.903Z,99437.44
2023-01-03T15:19:29.925Z,99432.19
2023-01-03T15:22:35.913Z,99434.00
2023-01-03T15:25:40.724Z,99437.59
2023-01-03T15:28:49.123Z,99440.31
2023-01-03T15:31:55.674Z,99440.50
2023-01-03T15:34:57.301Z,99434.44
2023-01-03T15:38:00.126Z,99433.59
2023-01-03T15:41:06.582Z,99432.75
2023-01-03T15:44:10.158Z,99437.09
2023-01-03T15:47:14.097Z,99431.72
2023-01-03T15:50:18.916Z,99433.44
2023-01-03T15:53:22.301Z,99430.78
2023-01-03T15:56:30.135Z,99432.56
2023-01-03T15:59:35.666Z,99438.78
2023-01-03T16:02:41.631Z,99433.47
2023-01-03T16:05:43.812Z,99430.81
2023-01-03T16:08:45.449Z,99427.25
2023-01-03T16:11:57.202Z,99420.16
2023-01-03T16:15:00.242Z,99416.63
2023-01-03T16:18:01.869Z,99416.63
2023-01-03T16:21:04.473Z,99424.59
2023-01-03T16:24:06.089Z,99429.97
2023-01-03T16:27:15.433Z,99428.16
2023-01-03T16:30:17.355Z,99430.81
2023-01-03T16:33:20.369Z,99420.16
2023-01-03T16:36:24.835Z,99419.31
2023-01-03T16:39:27.073Z,99422.84
2023-01-03T16:42:30.026Z,99429.09
2023-01-03T16:45:31.716Z,99420.25
2023-01-03T16:48:36.856Z,99416.69
2023-01-03T16:51:47.229Z,99418.56
2023-01-03T16:54:51.373Z,99413.28
2023-01-03T16:57:55.410Z,99409.81
2023-01-03T17:00:57.614Z,99415.16
2023-01-03T17:04:02.610Z,99408.97
2023-01-03T17:07:04.525Z,99417.94
2023-01-03T17:10:07.396Z,99408.34
2023-01-03T17:13:19.559Z,99406.66
2023-01-03T17:16:24.346Z,99408.44
2023-01-03T17:22:50.388Z,99405.81
2023-01-03T17:25:52.224Z,99401.38
2023-01-03T17:28:55.532Z,99398.75
2023-01-03T17:31:57.238Z,99409.34
2023-01-03T17:34:58.826Z,99399.63
2023-01-03T17:38:27.343Z,99400.53
2023-01-03T17:41:25.369Z,99397.84
2023-01-03T17:44:28.529Z,99397.00
2023-01-03T17:47:48.731Z,99396.25
2023-01-03T17:50:50.402Z,99397.16
2023-01-03T17:53:52.381Z,99400.75
2023-01-03T17:56:54.772Z,99405.25
2023-01-03T17:59:57.772Z,99402.72
2023-01-03T18:03:00.866Z,99407.22
2023-01-03T18:06:05.424Z,99405.41
2023-01-03T18:09:09.847Z,99406.28
2023-01-03T18:12:13.188Z,99393.97
2023-01-03T18:15:17.299Z,99400.19
2023-01-03T18:18:20.904Z,99401.13
2023-01-03T18:21:25.886Z,99395.84
2023-01-03T18:24:31.225Z,99381.75
2023-01-03T18:27:33.035Z,99387.13
2023-01-03T18:30:36.033Z,99393.41
2023-01-03T18:33:37.721Z,99388.19
2023-01-03T18:36:40.169Z,99390.03
2023-01-03T18:39:42.444Z,99384.78
2023-01-03T18:43:02.800Z,99396.25
2023-01-03T18:46:13.056Z,99398.13
2023-01-03T18:49:15.070Z,99385.81
2023-01-03T18:52:22.415Z,99384.97
2023-01-03T18:55:25.435Z,99384.13
2023-01-03T18:58:30.351Z,99387.72
2023-01-03T19:01:33.614Z,99382.47
2023-01-03T19:04:35.445Z,99384.25
2023-01-03T19:07:38.912Z,99380.81
2023-01-03T19:10:40.496Z,99382.63
2023-01-03T19:13:51.632Z,99371.19
2023-01-03T19:16:55.028Z,99364.97
2023-01-03T19:19:56.611Z,99364.06
2023-01-03T19:22:58.251Z,99362.31
2023-01-03T19:26:01.400Z,99363.22
2023-01-03T19:29:05.273Z,99361.44
2023-01-03T19:32:11.909Z,99358.75
2023-01-03T19:35:14.451Z,99347.28
2023-01-03T19:38:16.051Z,99343.75
2023-01-03T19:41:19.004Z,99341.06
2023-01-03T19:44:20.696Z,99343.75
2023-01-03T19:47:23.572Z,99339.34
2023-01-03T19:50:26.085Z,99333.16
2023-01-03T19:53:27.718Z,99336.66
2023-01-03T19:56:29.285Z,99329.56
2023-01-03T19:59:34.248Z,99332.22
2023-01-03T20:02:39.236Z,99318.97
2023-01-03T20:05:41.263Z,99328.69
2023-01-03T20:08:42.769Z,99330.41
2023-01-03T20:11:44.994Z,99324.25
2023-01-03T20:14:49.361Z,99310.16
2023-01-03T20:17:53.160Z,99313.72
2023-01-03T20:20:55.847Z,99300.47
2023-01-03T20:24:00.131Z,99305.84
2023-01-03T20:27:01.774Z,99307.66
2023-01-03T20:30:06.415Z,99310.31
2023-01-03T20:33:09.417Z,99297.19
2023-01-03T20:36:22.253Z,99300.81
2023-01-03T20:39:26.099Z,99300.84
2023-01-03T20:42:28.433Z,99303.53
2023-01-03T20:45:30.811Z,99300.94
2023-01-03T20:48:33.957Z,99300.09
2023-01-03T20:51:35.632Z,99286.84
2023-01-03T20:54:37.092Z,99276.31
2023-01-03T20:57:38.723Z,99280.72
2023-01-03T21:00:40.440Z,99269.22
2023-01-03T21:03:45.615Z,99269.28
2023-01-03T21:06:48.762Z,99263.13
2023-01-03T21:09:50.386Z,99255.22
2023-01-03T21:12:52.237Z,99248.22
2023-01-03T21:15:53.882Z,99243.00
2023-01-03T21:19:00.815Z,99241.22
2023-01-03T21:22:02.419Z,99245.63
2023-01-03T21:25:04.178Z,99243.81
2023-01-03T21:28:05.878Z,99242.88
2023-01-03T21:31:07.774Z,99234.00
2023-01-03T21:34:14.370Z,99225.19
2023-01-03T21:37:16.026Z,99226.00
2023-01-03T21:40:18.720Z,99232.25
2023-01-03T21:43:20.209Z,99228.72
2023-01-03T21:46:21.820Z,99219.03
2023-01-03T21:49:24.760Z,99203.22
2023-01-03T21:52:26.300Z,99193.63
2023-01-03T21:55:29.785Z,99186.56
2023-01-03T21:58:31.307Z,99194.50
2023-01-03T22:01:53.029Z,99187.53
2023-01-03T22:04:56.005Z,99182.31
2023-01-03T22:07:57.706Z,99178.72
2023-01-03T22:10:59.218Z,99173.41
2023-01-03T22:14:01.243Z,99179.63
2023-01-03T22:17:02.786Z,99179.53
2023-01-03T22:20:06.944Z,99175.09
2023-01-03T22:23:08.483Z,99173.31
2023-01-03T22:26:11.864Z,99172.44
2023-01-03T22:29:13.416Z,99182.97
2023-01-03T22:32:15.304Z,99187.34
2023-01-03T22:35:21.061Z,99175.91
2023-01-03T22:38:22.625Z,99179.31
2023-01-03T22:41:24.149Z,99179.38
2023-01-03T22:44:26.066Z,99182.88
2023-01-03T22:47:28.245Z,99181.22
2023-01-03T22:50:31.631Z,99177.72
2023-01-03T22:53:34.182Z,99175.03
2023-01-03T22:56:35.768Z,99169.81
2023-01-03T22:59:37.461Z,99168.03
2023-01-03T23:02:41.890Z,99167.19
2023-01-03T23:05:45.366Z,99163.69
2023-01-03T23:08:51.400Z,99145.22
2023-01-03T23:12:11.562Z,99152.28
2023-01-03T23:15:13.120Z,99149.63
2023-01-03T23:18:14.780Z,99139.03
2023-01-03T23:21:17.726Z,99139.00
2023-01-03T23:24:20.351Z,99138.13
2023-01-03T23:27:21.905Z,99131.03
2023-01-03T23:30:23.499Z,99121.28
2023-01-03T23:33:25.247Z,99123.06
2023-01-03T23:36:28.391Z,99120.53
2023-01-03T23:39:29.967Z,99101.13
2023-01-03T23:42:31.547Z,99102.91
2023-01-03T23:45:33.177Z,99097.69
2023-01-03T23:48:35.104Z,99081.88
2023-01-03T23:51:38.214Z,99080.13
2023-01-03T23:54:39.753Z,99081.03
2023-01-03T23:57:41.505Z,99076.59
